Time;durP1;ratioP1;P1;durP2;ratioP2;P2;SDS_P1;SDS_P2;PMS_P1;PMS_P2;Temp;Humidity;BMP_temperature;BMP_pressure;BME280_temperature;BME280_humidity;BME280_pressure;Samples;Min_cycle;Max_cycle;Signal;HPM_P1;HPM_P2
2023/10/13 09:36:26;;;;;;;9.45;3.38;;;;;;;;;;4226966;27;20343;-84
2023/10/13 09:38:28;;;;;;;11.50;3.95;;;;;;;;;;4227006;28;20047;-78
2023/10/13 09:40:38;;;;;;;9.32;4.00;;;;;;;;;;4225875;28;20040;-78
2023/10/13 09:42:39;;;;;;;9.43;3.90;;;;;;;;;;4239130;28;20090;-77
2023/10/13 09:44:49;;;;;;;9.07;3.90;;;;;;;;;;4239975;28;20055;-78
2023/10/13 09:46:52;;;;;;;8.90;3.88;;;;;;;;;;4243836;28;20044;-78
2023/10/13 09:49:08;;;;;;;11.07;3.88;;;;;;;;;;4243899;28;20385;-77
2023/10/13 09:51:11;;;;;;;;;;;;;;;;;;4233562;27;20051;-85
2023/10/13 09:53:17;;;;;;;8.93;3.60;;;;;;;;;;4227131;28;19924;-85
2023/10/13 09:55:26;;;;;;;8.98;3.80;;;;;;;;;;4226520;28;20120;-84
2023/10/13 09:57:34;;;;;;;10.45;3.80;;;;;;;;;;4226840;28;20563;-84
2023/10/13 09:59:47;;;;;;;12.57;3.92;;;;;;;;;;4226833;28;20051;-83
2023/10/13 10:01:51;;;;;;;11.05;3.95;;;;;;;;;;4239787;28;20055;-83
2023/10/13 10:04:07;;;;;;;9.98;3.67;;;;;;;;;;4231104;27;20079;-83
2023/10/13 10:06:17;;;;;;;9.65;3.25;;;;;;;;;;4237322;28;20079;-86
2023/10/13 10:08:34;;;;;;;11.38;3.47;;;;;;;;;;4224789;28;20044;-77
2023/10/13 10:10:48;;;;;;;9.98;3.80;;;;;;;;;;4227433;28;20058;-78
2023/10/13 10:12:55;;;;;;;9.75;3.35;;;;;;;;;;4226082;28;20463;-78
2023/10/13 10:15:28;;;;;;;13.90;3.40;;;;;;;;;;4211131;28;20401;-78
2023/10/13 10:17:29;;;;;;;8.60;3.58;;;;;;;;;;4211743;28;20048;-78
2023/10/13 10:19:46;;;;;;;8.90;3.25;;;;;;;;;;4212187;28;20051;-78
2023/10/13 10:21:50;;;;;;;13.93;3.42;;;;;;;;;;4211957;28;20040;-78
2023/10/13 10:23:55;;;;;;;9.55;3.15;;;;;;;;;;4211681;28;20048;-78
2023/10/13 10:26:08;;;;;;;14.35;3.25;;;;;;;;;;4219764;28;20048;-78
2023/10/13 10:28:09;;;;;;;9.73;3.53;;;;;;;;;;4228646;28;20048;-79
2023/10/13 10:30:13;;;;;;;10.25;3.28;;;;;;;;;;4228892;28;20097;-78
2023/10/13 10:32:15;;;;;;;12.45;3.55;;;;;;;;;;4228542;28;20066;-78
2023/10/13 10:34:19;;;;;;;11.02;3.40;;;;;;;;;;4228349;28;20044;-78
2023/10/13 10:36:30;;;;;;;11.00;3.42;;;;;;;;;;4228570;28;20051;-78
2023/10/13 10:38:38;;;;;;;7.70;3.10;;;;;;;;;;4228508;28;20067;-78
2023/10/13 10:40:56;;;;;;;9.77;3.55;;;;;;;;;;4228262;28;20060;-78
2023/10/13 10:43:00;;;;;;;10.50;3.30;;;;;;;;;;4228525;28;20502;-78
2023/10/13 10:45:09;;;;;;;9.35;3.83;;;;;;;;;;4228307;28;20043;-78
2023/10/13 10:47:19;;;;;;;7.82;3.08;;;;;;;;;;4220187;28;20480;-78
2023/10/13 10:49:27;;;;;;;9.73;3.42;;;;;;;;;;4217002;28;20396;-78
2023/10/13 10:51:31;;;;;;;10.23;3.22;;;;;;;;;;4216908;28;20408;-78
2023/10/13 10:53:43;;;;;;;9.00;3.33;;;;;;;;;;4217051;28;20044;-78
2023/10/13 10:55:45;;;;;;;9.07;3.05;;;;;;;;;;4216800;28;20105;-78
2023/10/13 10:57:58;;;;;;;8.35;2.80;;;;;;;;;;4216932;28;20069;-78
2023/10/13 11:00:11;;;;;;;8.63;3.10;;;;;;;;;;4216757;28;20074;-78
2023/10/13 11:02:18;;;;;;;11.18;2.95;;;;;;;;;;4216722;28;20044;-78
2023/10/13 11:04:33;;;;;;;10.88;2.72;;;;;;;;;;4217222;28;20164;-78
2023/10/13 11:06:41;;;;;;;11.18;3.10;;;;;;;;;;4216676;28;20135;-78
2023/10/13 11:08:51;;;;;;;9.02;2.60;;;;;;;;;;4216751;28;20044;-78
2023/10/13 11:10:53;;;;;;;11.00;3.00;;;;;;;;;;4216351;28;20044;-77
2023/10/13 11:13:11;;;;;;;7.28;2.47;;;;;;;;;;4216501;28;20386;-78
2023/10/13 11:15:21;;;;;;;9.32;3.00;;;;;;;;;;4216493;28;20048;-78
2023/10/13 11:17:26;;;;;;;11.57;2.72;;;;;;;;;;4216716;28;20051;-78
2023/10/13 11:19:36;;;;;;;6.60;2.60;;;;;;;;;;4216612;28;20051;-78
2023/10/13 11:21:38;;;;;;;9.23;2.40;;;;;;;;;;4216687;28;20089;-78
2023/10/13 11:23:40;;;;;;;10.95;2.75;;;;;;;;;;4216438;28;20097;-78
2023/10/13 11:25:44;;;;;;;8.63;2.78;;;;;;;;;;4216219;28;20477;-78
2023/10/13 11:27:55;;;;;;;9.05;3.00;;;;;;;;;;4216229;28;20051;-78
2023/10/13 11:30:05;;;;;;;8.15;2.95;;;;;;;;;;4216111;28;20408;-79
2023/10/13 11:32:08;;;;;;;8.90;3.00;;;;;;;;;;4216573;28;20131;-78
2023/10/13 11:34:16;;;;;;;9.02;2.72;;;;;;;;;;4216501;28;20412;-78
2023/10/13 11:36:22;;;;;;;9.15;2.60;;;;;;;;;;4215917;28;20083;-78
2023/10/13 11:38:25;;;;;;;10.82;3.10;;;;;;;;;;4216033;28;20135;-78
2023/10/13 11:42:47;;;;;;;6.40;3.08;;;;;;;;;;4215687;28;20447;-78
2023/10/13 11:45:01;;;;;;;5.95;2.60;;;;;;;;;;4216425;28;20078;-77
2023/10/13 11:49:39;;;;;;;7.90;2.88;;;;;;;;;;4146479;28;20447;-80
2023/10/13 11:51:44;;;;;;;8.45;2.72;;;;;;;;;;4148080;28;20042;-78
2023/10/13 11:53:51;;;;;;;8.40;2.90;;;;;;;;;;4147978;28;20537;-78
2023/10/13 11:55:53;;;;;;;9.60;3.05;;;;;;;;;;4198586;28;20048;-78
2023/10/13 11:57:59;;;;;;;10.63;3.35;;;;;;;;;;4206416;28;20044;-78
2023/10/13 12:04:43;;;;;;;7.22;2.95;;;;;;;;;;4215778;28;20059;-78
2023/10/13 12:07:02;;;;;;;9.45;3.13;;;;;;;;;;4215532;28;20044;-78
2023/10/13 12:09:19;;;;;;;6.80;2.60;;;;;;;;;;4221178;28;20047;-77
2023/10/13 12:11:38;;;;;;;8.32;2.83;;;;;;;;;;4232600;28;20071;-79
2023/10/13 12:13:40;;;;;;;8.00;2.80;;;;;;;;;;4232509;28;20134;-78
2023/10/13 12:15:56;;;;;;;7.25;2.80;;;;;;;;;;4232372;28;20532;-79
2023/10/13 12:18:03;;;;;;;6.80;2.80;;;;;;;;;;4227877;28;20400;-78
2023/10/13 12:20:09;;;;;;;8.43;2.85;;;;;;;;;;4214474;28;20400;-78
2023/10/13 12:22:16;;;;;;;8.63;2.90;;;;;;;;;;4215599;28;20071;-78
2023/10/13 12:24:31;;;;;;;6.88;2.85;;;;;;;;;;4206476;28;20131;-78
2023/10/13 12:26:33;;;;;;;8.00;3.10;;;;;;;;;;4196439;28;20059;-78
2023/10/13 12:28:40;;;;;;;9.13;2.58;;;;;;;;;;4203426;28;20052;-78
2023/10/13 12:30:48;;;;;;;7.13;3.15;;;;;;;;;;4213598;28;20478;-78
2023/10/13 12:33:06;;;;;;;6.82;2.63;;;;;;;;;;4213088;28;20048;-78
2023/10/13 12:35:27;;;;;;;9.13;3.08;;;;;;;;;;4211768;28;20111;-78
2023/10/13 12:37:49;;;;;;;8.00;3.00;;;;;;;;;;4212149;28;20105;-77
2023/10/13 12:49:28;;;;;;;8.50;3.00;;;;;;;;;;4227884;28;20540;-77
2023/10/13 12:51:50;;;;;;;9.75;2.90;;;;;;;;;;4224875;28;20047;-78
2023/10/13 12:53:53;;;;;;;8.30;2.90;;;;;;;;;;4230073;28;20054;-78
2023/10/13 12:55:55;;;;;;;8.75;2.97;;;;;;;;;;4229706;28;20456;-78
2023/10/13 12:57:58;;;;;;;7.07;2.65;;;;;;;;;;4228059;28;20105;-79
2023/10/13 12:59:59;;;;;;;8.13;3.10;;;;;;;;;;4222450;28;20719;-78
2023/10/13 13:02:06;;;;;;;8.38;3.03;;;;;;;;;;4213397;28;20413;-78
2023/10/13 13:04:12;;;;;;;9.40;2.97;;;;;;;;;;4227413;28;20066;-78
2023/10/13 13:06:17;;;;;;;;;;;;;;;;;;4229154;28;20393;-78
2023/10/13 13:08:22;;;;;;;7.82;3.03;;;;;;;;;;4220197;28;19920;-79
2023/10/13 13:10:37;;;;;;;6.10;2.97;;;;;;;;;;4205423;28;20052;-78
2023/10/13 13:12:39;;;;;;;9.35;2.83;;;;;;;;;;4212503;28;20051;-73
2023/10/13 13:14:45;;;;;;;17.58;7.60;;;;;;;;;;4217015;28;20056;-73
2023/10/13 13:16:48;;;;;;;8.60;3.97;;;;;;;;;;4209670;28;20144;-72
2023/10/13 13:18:49;;;;;;;11.52;4.55;;;;;;;;;;4212504;28;20131;-73
2023/10/13 13:20:55;;;;;;;12.10;3.47;;;;;;;;;;4219531;28;20070;-72
2023/10/13 13:23:02;;;;;;;8.10;3.28;;;;;;;;;;4220555;28;20052;-73
2023/10/13 13:25:09;;;;;;;7.70;3.00;;;;;;;;;;4214234;28;20480;-73
2023/10/13 13:27:19;;;;;;;8.30;2.72;;;;;;;;;;4225810;28;20074;-74
2023/10/13 13:29:21;;;;;;;9.90;2.80;;;;;;;;;;4219551;28;20126;-73
2023/10/13 13:31:26;;;;;;;9.05;3.00;;;;;;;;;;4212641;28;20660;-73
2023/10/13 13:33:33;;;;;;;7.60;2.90;;;;;;;;;;4212447;28;20048;-74
2023/10/13 13:35:35;;;;;;;8.45;2.92;;;;;;;;;;4211946;28;20075;-73
2023/10/13 13:37:37;;;;;;;8.18;2.80;;;;;;;;;;4211737;28;20117;-74
2023/10/13 13:39:44;;;;;;;6.28;3.00;;;;;;;;;;4209471;28;20178;-73
2023/10/13 13:41:50;;;;;;;10.32;2.70;;;;;;;;;;4220978;28;20044;-73
2023/10/13 13:43:56;;;;;;;8.48;2.83;;;;;;;;;;4212637;28;20161;-74
2023/10/13 13:46:00;;;;;;;9.48;2.85;;;;;;;;;;4212479;28;20097;-73
2023/10/13 13:48:07;;;;;;;6.93;2.60;;;;;;;;;;4213053;28;20047;-74
2023/10/13 13:50:16;;;;;;;8.02;2.90;;;;;;;;;;4222588;28;20036;-73
2023/10/13 13:52:21;;;;;;;9.75;3.17;;;;;;;;;;4211514;28;20052;-74
2023/10/13 13:54:27;;;;;;;8.15;2.60;;;;;;;;;;4212487;28;20075;-77
2023/10/13 13:56:31;;;;;;;5.97;2.85;;;;;;;;;;4212475;28;20080;-78
2023/10/13 13:58:34;;;;;;;7.00;2.70;;;;;;;;;;4211401;28;20055;-79
2023/10/13 14:00:38;;;;;;;6.97;2.70;;;;;;;;;;4211477;28;20051;-79
2023/10/13 14:02:45;;;;;;;9.48;3.10;;;;;;;;;;4212349;28;20055;-78
2023/10/13 14:04:50;;;;;;;6.25;2.97;;;;;;;;;;4217928;28;20493;-79
2023/10/13 14:06:52;;;;;;;7.22;2.90;;;;;;;;;;4212351;28;20040;-79
2023/10/13 14:08:54;;;;;;;8.73;3.00;;;;;;;;;;4210480;28;20396;-79
2023/10/13 14:11:21;;;;;;;6.93;2.70;;;;;;;;;;4210626;28;20052;-79
2023/10/13 14:13:47;;;;;;;10.25;3.28;;;;;;;;;;4227516;28;20092;-79
2023/10/13 14:15:47;;;;;;;7.65;2.80;;;;;;;;;;4228731;28;20134;-79
2023/10/13 14:17:49;;;;;;;7.40;2.83;;;;;;;;;;4220585;28;20527;-79
2023/10/13 14:19:51;;;;;;;8.02;3.17;;;;;;;;;;4212036;28;20472;-79
2023/10/13 14:21:53;;;;;;;7.97;2.88;;;;;;;;;;4212080;28;20073;-78
2023/10/13 14:23:55;;;;;;;8.60;3.00;;;;;;;;;;4225970;28;20164;-79
2023/10/13 14:25:58;;;;;;;11.07;3.10;;;;;;;;;;4231943;28;20052;-79
2023/10/13 14:27:59;;;;;;;9.23;3.08;;;;;;;;;;4219228;28;20060;-78
2023/10/13 14:30:01;;;;;;;11.23;3.10;;;;;;;;;;4214931;28;20047;-79
2023/10/13 14:32:05;;;;;;;8.75;2.88;;;;;;;;;;4213984;28;20059;-79
2023/10/13 14:34:07;;;;;;;8.52;3.03;;;;;;;;;;4215018;28;20054;-78
2023/10/13 14:36:11;;;;;;;7.30;3.30;;;;;;;;;;4214313;28;20447;-78
2023/10/13 14:38:13;;;;;;;7.97;3.28;;;;;;;;;;4214294;28;20458;-79
2023/10/13 14:40:16;;;;;;;6.65;2.83;;;;;;;;;;4213052;28;20036;-79
2023/10/13 14:42:22;;;;;;;5.35;2.42;;;;;;;;;;4222739;28;20058;-79
2023/10/13 14:44:26;;;;;;;9.13;2.90;;;;;;;;;;4232166;28;20648;-77
2023/10/13 14:46:29;;;;;;;6.05;2.50;;;;;;;;;;4231670;28;20051;-78
2023/10/13 14:48:32;;;;;;;7.72;2.70;;;;;;;;;;4223363;28;20733;-78
2023/10/13 14:50:35;;;;;;;7.97;2.58;;;;;;;;;;4214543;28;20040;-78
2023/10/13 14:52:37;;;;;;;8.68;2.60;;;;;;;;;;4213796;28;20090;-78
2023/10/13 14:54:39;;;;;;;6.95;2.60;;;;;;;;;;4214778;28;20117;-78
2023/10/13 14:56:42;;;;;;;6.22;2.55;;;;;;;;;;4214790;28;20125;-78
2023/10/13 14:58:46;;;;;;;10.23;2.80;;;;;;;;;;4213725;28;20087;-78
2023/10/13 15:00:49;;;;;;;10.38;3.00;;;;;;;;;;4214178;28;20135;-78
2023/10/13 15:02:51;;;;;;;8.13;2.67;;;;;;;;;;4230383;28;20047;-79
2023/10/13 15:04:57;;;;;;;5.97;2.60;;;;;;;;;;4218327;28;20045;-80
2023/10/13 15:06:59;;;;;;;5.40;2.20;;;;;;;;;;4203737;28;20053;-81
2023/10/13 15:09:03;;;;;;;10.57;2.42;;;;;;;;;;4205788;28;20045;-80
2023/10/13 15:11:12;;;;;;;5.40;2.35;;;;;;;;;;4206026;28;20079;-81
2023/10/13 15:13:16;;;;;;;8.50;2.50;;;;;;;;;;4216361;28;20044;-81
2023/10/13 15:15:19;;;;;;;5.90;2.50;;;;;;;;;;4214926;28;20055;-80
2023/10/13 15:17:23;;;;;;;5.35;2.30;;;;;;;;;;4213556;28;20106;-81
2023/10/13 15:19:26;;;;;;;5.53;2.40;;;;;;;;;;4209202;28;20039;-80
2023/10/13 15:21:34;;;;;;;9.02;2.42;;;;;;;;;;4213563;28;20040;-78
2023/10/13 15:23:42;;;;;;;4.78;1.95;;;;;;;;;;4211285;28;20458;-79
2023/10/13 15:25:50;;;;;;;6.50;2.47;;;;;;;;;;4205966;28;20048;-78
2023/10/13 15:27:55;;;;;;;5.68;2.33;;;;;;;;;;4202820;28;20048;-79
2023/10/13 15:29:59;;;;;;;6.47;2.60;;;;;;;;;;4213952;28;20044;-79
2023/10/13 15:32:41;;;;;;;6.72;2.47;;;;;;;;;;4213599;28;20347;-79
2023/10/13 15:34:28;;;;;;;5.57;2.60;;;;;;;;;;4230799;28;20154;-78
2023/10/13 15:36:31;;;;;;;9.43;2.13;;;;;;;;;;4225082;28;20109;-80
2023/10/13 16:04:26;;;;;;;6.53;2.40;;;;;;;;;;4241706;27;20855;-80
2023/10/13 16:06:29;;;;;;;8.63;2.60;;;;;;;;;;4226375;28;20055;-83
2023/10/13 16:08:32;;;;;;;8.38;2.50;;;;;;;;;;4234817;28;20047;-82
2023/10/13 16:10:34;;;;;;;7.80;2.70;;;;;;;;;;4243454;27;20518;-82
2023/10/13 16:12:36;;;;;;;8.45;2.50;;;;;;;;;;4234956;27;20048;-81
2023/10/13 16:14:40;;;;;;;9.25;2.22;;;;;;;;;;4227119;28;20052;-85
2023/10/13 16:16:44;;;;;;;7.47;2.20;;;;;;;;;;4227143;28;20476;-82
2023/10/13 16:18:47;;;;;;;11.45;2.30;;;;;;;;;;4236589;28;20047;-86
2023/10/13 16:20:51;;;;;;;5.82;2.25;;;;;;;;;;4244083;27;20043;-82
2023/10/13 16:22:53;;;;;;;9.45;2.50;;;;;;;;;;4244019;27;20079;-88
2023/10/13 16:24:56;;;;;;;23.75;2.67;;;;;;;;;;4233129;27;20051;-78
2023/10/13 16:26:59;;;;;;;17.27;2.70;;;;;;;;;;4226732;28;20048;-83
2023/10/13 16:29:01;;;;;;;12.52;2.47;;;;;;;;;;4240417;28;20051;-94
2023/10/13 16:31:03;;;;;;;7.70;2.40;;;;;;;;;;4244360;27;20047;-82
2023/10/13 16:33:06;;;;;;;7.90;2.22;;;;;;;;;;4242195;27;20047;-79
2023/10/13 16:35:10;;;;;;;10.27;3.80;;;;;;;;;;4243949;27;20082;-79
2023/10/13 16:37:16;;;;;;;10.73;5.20;;;;;;;;;;4243515;27;20049;-80
2023/10/13 16:39:22;;;;;;;10.50;4.68;;;;;;;;;;4238795;27;20047;-81
2023/10/13 16:41:24;;;;;;;12.60;4.97;;;;;;;;;;4232228;27;20086;-80
2023/10/13 16:43:27;;;;;;;9.07;3.20;;;;;;;;;;4241632;28;20090;-81
2023/10/13 16:45:31;;;;;;;7.53;3.58;;;;;;;;;;4230938;27;20078;-82
2023/10/13 16:47:33;;;;;;;8.70;3.05;;;;;;;;;;4232063;28;20130;-82
2023/10/13 16:49:35;;;;;;;8.13;3.00;;;;;;;;;;4243855;27;20054;-83
2023/10/13 16:51:38;;;;;;;10.18;2.88;;;;;;;;;;4233127;27;20542;-82
2023/10/13 16:53:42;;;;;;;5.85;2.60;;;;;;;;;;4226281;28;20047;-81
2023/10/13 16:55:45;;;;;;;7.35;3.05;;;;;;;;;;4232923;28;20048;-82
2023/10/13 16:57:50;;;;;;;12.02;3.40;;;;;;;;;;4232905;28;20052;-82
2023/10/13 16:59:52;;;;;;;7.73;2.90;;;;;;;;;;4238308;27;20054;-81
2023/10/13 17:01:54;;;;;;;9.77;3.10;;;;;;;;;;4223557;28;20047;-82
2023/10/13 17:03:56;;;;;;;8.15;2.90;;;;;;;;;;4230591;27;20055;-82
2023/10/13 17:06:01;;;;;;;9.25;3.10;;;;;;;;;;4226815;28;20458;-82
2023/10/13 17:08:02;;;;;;;7.10;2.80;;;;;;;;;;4226279;28;20461;-80
2023/10/13 17:10:08;;;;;;;6.65;3.08;;;;;;;;;;4236137;28;20108;-80
2023/10/13 17:12:10;;;;;;;7.45;2.92;;;;;;;;;;4242934;27;20086;-81
2023/10/13 17:14:12;;;;;;;10.20;2.60;;;;;;;;;;4232452;27;20047;-80
2023/10/13 17:16:15;;;;;;;8.05;3.25;;;;;;;;;;4214784;28;20105;-81
2023/10/13 17:18:18;;;;;;;7.00;3.03;;;;;;;;;;4215026;28;20048;-80
2023/10/13 17:20:20;;;;;;;7.90;3.15;;;;;;;;;;4214833;28;20455;-79
2023/10/13 17:22:22;;;;;;;9.48;2.67;;;;;;;;;;4204293;28;20114;-80
2023/10/13 17:24:24;;;;;;;7.82;3.10;;;;;;;;;;4217832;28;20352;-79
2023/10/13 17:26:28;;;;;;;7.80;3.20;;;;;;;;;;4224955;28;20443;-79
2023/10/13 17:28:29;;;;;;;9.43;3.10;;;;;;;;;;4217768;28;20036;-79
2023/10/13 17:30:31;;;;;;;9.95;3.83;;;;;;;;;;4231807;28;20090;-81
2023/10/13 17:32:34;;;;;;;12.43;5.13;;;;;;;;;;4231659;28;20075;-80
2023/10/13 17:34:36;;;;;;;10.73;3.75;;;;;;;;;;4219177;28;20040;-80
2023/10/13 17:36:38;;;;;;;9.50;3.22;;;;;;;;;;4224198;28;20052;-80
2023/10/13 17:38:41;;;;;;;8.00;2.92;;;;;;;;;;4224731;28;20404;-80
2023/10/13 17:40:43;;;;;;;6.75;2.78;;;;;;;;;;4198128;28;20079;-82
2023/10/13 17:42:49;;;;;;;6.60;2.58;;;;;;;;;;4199995;28;20485;-82
2023/10/13 17:44:52;;;;;;;6.63;3.22;;;;;;;;;;4202325;28;20540;-77
2023/10/13 17:46:54;;;;;;;5.97;2.92;;;;;;;;;;4211098;28;20480;-79
2023/10/13 17:48:57;;;;;;;8.68;3.55;;;;;;;;;;4214068;28;20052;-79
2023/10/13 17:51:00;;;;;;;9.23;3.25;;;;;;;;;;4215715;28;20051;-79
2023/10/13 17:53:02;;;;;;;7.72;2.80;;;;;;;;;;4231228;28;20098;-79
2023/10/13 17:55:06;;;;;;;8.90;3.13;;;;;;;;;;4230137;28;20051;-79
2023/10/13 17:57:08;;;;;;;7.03;2.70;;;;;;;;;;4219601;28;20560;-79
2023/10/13 17:59:12;;;;;;;7.35;2.60;;;;;;;;;;4214322;28;20056;-79
2023/10/13 18:01:17;;;;;;;9.52;3.08;;;;;;;;;;4213633;28;20090;-79
2023/10/13 18:03:20;;;;;;;8.93;3.03;;;;;;;;;;4213803;28;20111;-80
2023/10/13 18:05:21;;;;;;;6.22;2.67;;;;;;;;;;4212687;28;20108;-84
2023/10/13 18:07:25;;;;;;;8.45;3.00;;;;;;;;;;4211795;28;20142;-84
2023/10/13 18:09:28;;;;;;;7.07;2.83;;;;;;;;;;4213181;28;20121;-84
2023/10/13 18:11:32;;;;;;;6.38;2.67;;;;;;;;;;4199520;28;20050;-81
2023/10/13 18:13:34;;;;;;;9.27;2.90;;;;;;;;;;4212107;28;20044;-82
2023/10/13 18:15:38;;;;;;;10.05;3.10;;;;;;;;;;4213976;28;20452;-82
2023/10/13 18:17:39;;;;;;;7.13;2.78;;;;;;;;;;4219796;28;20071;-82
2023/10/13 18:19:42;;;;;;;8.10;3.15;;;;;;;;;;4230946;28;20058;-82
2023/10/13 18:21:46;;;;;;;9.07;5.13;;;;;;;;;;4230299;28;20044;-82
2023/10/13 18:23:48;;;;;;;11.38;3.92;;;;;;;;;;4230355;28;20044;-82
2023/10/13 18:25:50;;;;;;;9.10;4.68;;;;;;;;;;4214382;28;20040;-82
2023/10/13 18:27:52;;;;;;;11.02;4.72;;;;;;;;;;4215619;28;20036;-83
2023/10/13 18:29:55;;;;;;;6.60;3.20;;;;;;;;;;4213795;28;20075;-82
2023/10/13 18:31:59;;;;;;;10.23;3.15;;;;;;;;;;4205237;28;20049;-83
2023/10/13 18:34:02;;;;;;;8.90;2.83;;;;;;;;;;4213499;28;20076;-81
2023/10/13 18:36:14;;;;;;;6.65;2.72;;;;;;;;;;4224457;28;20477;-81
2023/10/13 18:38:17;;;;;;;5.43;2.67;;;;;;;;;;4230618;28;20075;-80
2023/10/13 18:40:20;;;;;;;9.45;3.25;;;;;;;;;;4218219;28;20051;-79
2023/10/13 18:42:23;;;;;;;7.60;2.70;;;;;;;;;;4200460;28;20048;-80
2023/10/13 18:44:26;;;;;;;6.80;2.90;;;;;;;;;;4213278;28;20052;-80
2023/10/13 18:46:28;;;;;;;9.85;2.80;;;;;;;;;;4226560;28;20091;-80
2023/10/13 18:48:33;;;;;;;9.35;2.70;;;;;;;;;;4228256;28;20150;-80
2023/10/13 18:50:35;;;;;;;7.03;2.63;;;;;;;;;;4228641;28;20460;-79
2023/10/13 18:52:40;;;;;;;6.05;2.40;;;;;;;;;;4228277;28;20047;-80
2023/10/13 18:54:42;;;;;;;8.70;2.78;;;;;;;;;;4226065;28;20052;-79
2023/10/13 18:56:45;;;;;;;7.72;2.60;;;;;;;;;;4228348;28;20051;-79
2023/10/13 18:58:53;;;;;;;8.82;2.65;;;;;;;;;;4228367;28;20050;-80
2023/10/13 19:00:55;;;;;;;7.82;2.53;;;;;;;;;;4220255;28;20481;-79
2023/10/13 19:02:58;;;;;;;8.35;2.90;;;;;;;;;;4211052;28;20489;-79
2023/10/13 19:05:03;;;;;;;7.80;2.83;;;;;;;;;;4214801;28;20422;-79
2023/10/13 19:07:05;;;;;;;8.13;2.60;;;;;;;;;;4226649;28;20504;-79
2023/10/13 19:09:08;;;;;;;8.57;2.60;;;;;;;;;;4228261;28;20050;-79
2023/10/13 19:11:11;;;;;;;6.65;2.60;;;;;;;;;;4228074;28;20139;-79
2023/10/13 19:13:14;;;;;;;6.70;2.60;;;;;;;;;;4227765;28;20047;-79
2023/10/13 19:15:16;;;;;;;6.22;2.22;;;;;;;;;;4225683;28;20075;-80
2023/10/13 19:17:19;;;;;;;8.73;2.40;;;;;;;;;;4227834;28;20062;-80
2023/10/13 19:19:23;;;;;;;8.88;3.67;;;;;;;;;;4228237;28;20051;-81
2023/10/13 19:21:27;;;;;;;5.55;2.60;;;;;;;;;;4228131;28;20059;-80
2023/10/13 19:23:29;;;;;;;7.88;3.00;;;;;;;;;;4209363;28;20036;-80
2023/10/13 19:25:35;;;;;;;8.13;2.90;;;;;;;;;;4210186;28;20105;-80
2023/10/13 19:27:38;;;;;;;9.10;3.70;;;;;;;;;;4222289;28;20542;-81
2023/10/13 19:29:40;;;;;;;6.97;2.67;;;;;;;;;;4227656;28;20082;-81
2023/10/13 19:31:43;;;;;;;6.10;2.60;;;;;;;;;;4228294;28;20048;-80
2023/10/13 19:33:47;;;;;;;6.07;2.70;;;;;;;;;;4228428;28;20051;-86
2023/10/13 19:35:50;;;;;;;4.97;2.50;;;;;;;;;;4218119;28;20482;-87
2023/10/13 19:37:53;;;;;;;9.35;4.13;;;;;;;;;;4211504;28;20060;-82
2023/10/13 19:39:59;;;;;;;6.93;3.95;;;;;;;;;;4208001;28;20044;-84
2023/10/13 19:42:01;;;;;;;8.18;3.40;;;;;;;;;;4211387;28;20055;-83
2023/10/13 19:44:04;;;;;;;6.22;2.50;;;;;;;;;;4211687;28;20098;-82
